createdAt,value
2018-05-12T00:01:01.928Z,13.1
2018-05-12T00:02:09.136Z,13
2018-05-12T00:03:16.347Z,13.1
2018-05-12T00:04:23.553Z,13
2018-05-12T00:05:30.486Z,13
2018-05-12T00:06:37.694Z,12.9
2018-05-12T00:07:44.897Z,13
2018-05-12T00:08:52.124Z,12.9
2018-05-12T00:09:59.330Z,12.9
2018-05-12T00:11:06.535Z,12.9
2018-05-12T00:12:13.478Z,12.9
2018-05-12T00:13:20.685Z,12.9
2018-05-12T00:14:27.892Z,12.9
2018-05-12T00:15:35.173Z,12.9
2018-05-12T00:16:42.365Z,12.8
2018-05-12T00:17:49.567Z,12.8
2018-05-12T00:18:56.775Z,12.8
2018-05-12T00:20:03.987Z,12.8
2018-05-12T00:21:10.927Z,12.7
2018-05-12T00:22:18.137Z,12.7
2018-05-12T00:23:25.343Z,12.7
2018-05-12T00:24:32.565Z,12.7
2018-05-12T00:25:39.777Z,12.7
2018-05-12T00:26:46.973Z,12.6
2018-05-12T00:27:54.180Z,12.6
2018-05-12T00:29:01.385Z,12.6
2018-05-12T00:30:08.319Z,12.5
2018-05-12T00:31:15.254Z,12.5
2018-05-12T00:32:22.457Z,12.5
2018-05-12T00:33:29.666Z,12.5
2018-05-12T00:34:36.872Z,12.5
2018-05-12T00:35:44.072Z,12.4
2018-05-12T00:36:51.280Z,12.4
2018-05-12T00:37:58.486Z,12.4
2018-05-12T00:39:05.697Z,12.4
2018-05-12T00:40:12.975Z,12.4
2018-05-12T00:41:20.179Z,12.4
2018-05-12T00:42:27.392Z,12.3
2018-05-12T00:43:34.323Z,12.3
2018-05-12T00:44:41.532Z,12.3
2018-05-12T00:45:48.745Z,12.2
2018-05-12T00:46:55.946Z,12.2
2018-05-12T00:48:03.158Z,12.2
2018-05-12T00:49:10.368Z,12.2
2018-05-12T00:50:17.577Z,12.1
2018-05-12T00:51:24.781Z,12.1
2018-05-12T00:52:31.988Z,12
2018-05-12T00:53:39.195Z,12
2018-05-12T00:54:46.413Z,12
2018-05-12T00:55:53.621Z,12
2018-05-12T00:57:00.557Z,12
2018-05-12T00:58:07.764Z,11.9
2018-05-12T00:59:15.186Z,11.9
2018-05-12T01:00:22.393Z,11.9
2018-05-12T01:01:29.599Z,11.9
2018-05-12T01:02:36.812Z,11.9
2018-05-12T01:03:44.024Z,11.9
2018-05-12T01:04:51.223Z,11.8
2018-05-12T01:05:58.435Z,11.8
2018-05-12T01:07:05.635Z,11.7
2018-05-12T01:08:12.841Z,11.7
2018-05-12T01:09:20.049Z,11.7
2018-05-12T01:10:27.258Z,11.7
2018-05-12T01:11:34.463Z,11.6
2018-05-12T01:12:41.676Z,11.6
2018-05-12T01:13:48.918Z,11.6
2018-05-12T01:14:56.133Z,11.6
2018-05-12T01:16:03.057Z,11.6
2018-05-12T01:17:09.713Z,11.6
2018-05-12T01:18:16.914Z,11.5
2018-05-12T01:19:24.120Z,11.5
2018-05-12T01:20:31.325Z,11.5
2018-05-12T01:21:38.251Z,11.5
2018-05-12T01:22:45.180Z,11.5
2018-05-12T01:23:52.383Z,11.5
2018-05-12T01:24:59.599Z,11.5
2018-05-12T01:26:06.803Z,11.4
2018-05-12T01:27:13.731Z,11.5
2018-05-12T01:28:20.938Z,11.5
2018-05-12T01:29:28.139Z,11.4
2018-05-12T01:30:35.346Z,11.4
2018-05-12T01:31:42.550Z,11.5
2018-05-12T01:32:49.748Z,11.4
2018-05-12T01:33:56.948Z,11.4
2018-05-12T01:35:04.155Z,11.4
2018-05-12T01:36:11.353Z,11.4
2018-05-12T01:37:18.567Z,11.4
2018-05-12T01:38:25.755Z,11.4
2018-05-12T01:39:32.963Z,11.4
2018-05-12T01:40:40.173Z,11.4
2018-05-12T01:41:47.379Z,11.4
2018-05-12T01:42:54.345Z,11.4
2018-05-12T01:44:01.574Z,11.4
2018-05-12T01:45:08.778Z,11.4
2018-05-12T01:46:15.981Z,11.3
2018-05-12T01:47:22.913Z,11.3
2018-05-12T01:48:30.117Z,11.4
2018-05-12T01:49:37.320Z,11.4
2018-05-12T01:50:44.522Z,11.4
2018-05-12T01:51:51.729Z,11.3
2018-05-12T01:52:58.931Z,11.3
2018-05-12T01:54:06.139Z,11.3
2018-05-12T01:55:13.344Z,11.3
2018-05-12T01:56:20.618Z,11.3
2018-05-12T01:57:27.819Z,11.3
2018-05-12T01:58:34.743Z,11.3
2018-05-12T01:59:41.674Z,11.3
2018-05-12T02:00:48.604Z,11.3
2018-05-12T02:01:55.808Z,11.3
2018-05-12T02:03:03.020Z,11.3
2018-05-12T02:04:10.252Z,11.3
2018-05-12T02:05:17.182Z,11.3
2018-05-12T02:06:24.395Z,11.3
2018-05-12T02:07:31.598Z,11.3
2018-05-12T02:08:38.528Z,11.3
2018-05-12T02:09:45.755Z,11.3
2018-05-12T02:10:52.946Z,11.2
2018-05-12T02:11:59.848Z,11.2
2018-05-12T02:13:07.086Z,11.2
2018-05-12T02:14:14.295Z,11.2
2018-05-12T02:15:21.502Z,11.2
2018-05-12T02:16:28.704Z,11.2
2018-05-12T02:17:35.634Z,11.1
2018-05-12T02:18:42.841Z,11.1
2018-05-12T02:19:50.041Z,11.1
2018-05-12T02:20:56.970Z,11.1
2018-05-12T02:22:04.173Z,11.1
2018-05-12T02:23:11.377Z,11.1
2018-05-12T02:24:18.303Z,11.1
2018-05-12T02:25:25.510Z,11.1
2018-05-12T02:26:32.713Z,11.1
2018-05-12T02:27:39.933Z,11.1
2018-05-12T02:28:46.595Z,11.1
2018-05-12T02:29:53.798Z,11.1
2018-05-12T02:31:01.011Z,11
2018-05-12T02:32:08.219Z,11.1
2018-05-12T02:33:15.432Z,11.1
2018-05-12T02:34:22.366Z,11.1
2018-05-12T02:35:29.574Z,11
2018-05-12T02:36:36.776Z,11
2018-05-12T02:37:43.982Z,11
2018-05-12T02:38:51.193Z,10.9
2018-05-12T02:39:58.121Z,10.9
2018-05-12T02:41:05.049Z,10.9
2018-05-12T02:42:12.257Z,10.9
2018-05-12T02:43:19.475Z,10.9
2018-05-12T02:44:26.681Z,10.9
2018-05-12T02:45:33.881Z,10.9
2018-05-12T02:46:40.543Z,10.9
2018-05-12T02:47:47.747Z,10.8
2018-05-12T02:48:54.678Z,10.9
2018-05-12T02:50:01.884Z,10.9
2018-05-12T02:51:09.181Z,10.8
2018-05-12T02:52:16.108Z,10.8
2018-05-12T02:53:23.312Z,10.8
2018-05-12T02:54:30.512Z,10.8
2018-05-12T02:55:37.715Z,10.7
2018-05-12T02:56:44.914Z,10.7
2018-05-12T02:57:52.119Z,10.7
2018-05-12T02:58:59.325Z,10.7
2018-05-12T03:00:06.540Z,10.7
2018-05-12T03:01:13.744Z,10.7
2018-05-12T03:02:20.946Z,10.6
2018-05-12T03:03:28.158Z,10.6
2018-05-12T03:04:35.360Z,10.6
2018-05-12T03:05:42.563Z,10.5
2018-05-12T03:06:49.763Z,10.5
2018-05-12T03:07:56.968Z,10.5
2018-05-12T03:09:04.172Z,10.4
2018-05-12T03:10:11.372Z,10.4
2018-05-12T03:11:18.576Z,10.4
2018-05-12T03:12:25.784Z,10.4
2018-05-12T03:13:32.985Z,10.4
2018-05-12T03:14:40.189Z,10.3
2018-05-12T03:15:47.395Z,10.3
2018-05-12T03:16:54.592Z,10.3
2018-05-12T03:18:01.801Z,10.3
2018-05-12T03:19:08.733Z,10.3
2018-05-12T03:20:15.711Z,10.2
2018-05-12T03:21:22.950Z,10.3
2018-05-12T03:22:30.158Z,10.2
2018-05-12T03:23:37.358Z,10.2
2018-05-12T03:24:44.559Z,10.2
2018-05-12T03:25:51.767Z,10.2
2018-05-12T03:26:58.693Z,10.1
2018-05-12T03:28:05.899Z,10.1
2018-05-12T03:29:12.828Z,10.1
2018-05-12T03:30:19.766Z,10
2018-05-12T03:31:26.973Z,10
2018-05-12T03:32:33.898Z,9.9
2018-05-12T03:33:41.103Z,10
2018-05-12T03:34:48.305Z,9.9
2018-05-12T03:35:55.510Z,10
2018-05-12T03:37:02.718Z,10
2018-05-12T03:38:09.640Z,10
2018-05-12T03:39:16.841Z,9.9
2018-05-12T03:40:24.043Z,9.9
2018-05-12T03:41:31.253Z,10
2018-05-12T03:42:38.542Z,10
2018-05-12T03:43:45.744Z,10
2018-05-12T03:44:52.947Z,10
2018-05-12T03:46:00.149Z,9.9
2018-05-12T03:47:07.081Z,9.9
2018-05-12T03:48:14.284Z,9.9
2018-05-12T03:49:21.213Z,9.9
2018-05-12T03:50:28.417Z,9.9
2018-05-12T22:00:06.655Z,17.3
2018-05-12T22:01:13.600Z,17.2
2018-05-12T22:02:20.802Z,17.2
2018-05-12T22:03:28.012Z,17.1
2018-05-12T22:04:35.220Z,17
2018-05-12T22:05:42.426Z,17
2018-05-12T22:06:49.632Z,16.9
2018-05-12T22:07:56.694Z,16.9
2018-05-12T22:09:03.922Z,16.9
2018-05-12T22:10:11.133Z,16.9
2018-05-12T22:11:18.341Z,16.9
2018-05-12T22:12:25.548Z,17
2018-05-12T22:13:32.770Z,17
2018-05-12T22:14:39.978Z,17
2018-05-12T22:15:47.188Z,16.9
2018-05-12T22:16:54.400Z,16.9
2018-05-12T22:18:01.600Z,16.9
2018-05-12T22:19:08.537Z,16.9
2018-05-12T22:20:15.745Z,16.9
2018-05-12T22:21:22.682Z,17
2018-05-12T22:22:29.895Z,17.1
2018-05-12T22:23:37.096Z,17
2018-05-12T22:24:44.311Z,17
2018-05-12T22:25:51.240Z,17
2018-05-12T22:26:58.452Z,17.1
2018-05-12T22:28:05.662Z,17.1
2018-05-12T22:29:12.879Z,17.1
2018-05-12T22:30:19.538Z,17.2
2018-05-12T22:31:26.748Z,17.1
2018-05-12T22:32:33.958Z,17.2
2018-05-12T22:33:41.168Z,17.2
2018-05-12T22:34:48.380Z,17.2
2018-05-12T22:35:55.587Z,17.2
2018-05-12T22:37:02.797Z,17.3
2018-05-12T22:38:10.003Z,17.4
2018-05-12T22:39:16.911Z,17.5
2018-05-12T22:40:24.117Z,17.5
2018-05-12T22:41:31.323Z,17.5
2018-05-12T22:42:38.530Z,17.4
2018-05-12T22:43:45.756Z,17.4
2018-05-12T22:44:52.950Z,17.4
2018-05-12T22:46:00.171Z,17.5
2018-05-12T22:47:07.377Z,17.5
2018-05-12T22:48:14.311Z,17.5
2018-05-12T22:49:21.523Z,17.5
2018-05-12T22:50:28.727Z,17.5
2018-05-12T22:51:35.940Z,17.5
2018-05-12T22:52:42.868Z,17.4
2018-05-12T22:53:50.077Z,17.4
2018-05-12T22:54:57.283Z,17.4
2018-05-12T22:56:04.492Z,17.4
2018-05-12T22:57:11.428Z,17.4
2018-05-12T22:58:18.647Z,17.4
2018-05-12T22:59:25.853Z,17.5
2018-05-12T23:00:33.064Z,17.6
2018-05-12T23:01:40.272Z,17.5
2018-05-12T23:02:47.482Z,17.5
2018-05-12T23:03:54.420Z,17.5
2018-05-12T23:05:01.384Z,17.5
2018-05-12T23:06:08.590Z,17.5
2018-05-12T23:07:15.803Z,17.5
2018-05-12T23:08:23.014Z,17.4
2018-05-12T23:09:30.231Z,17.4
2018-05-12T23:10:37.161Z,17.3
2018-05-12T23:11:44.375Z,17.4
2018-05-12T23:12:51.315Z,17.3
2018-05-12T23:13:58.520Z,17.3
2018-05-12T23:15:05.793Z,17.3
2018-05-12T23:16:13.004Z,17.3
2018-05-12T23:17:20.205Z,17.3
2018-05-12T23:18:27.452Z,17.3
2018-05-12T23:19:34.765Z,17.2
2018-05-12T23:20:41.976Z,17.2
2018-05-12T23:21:49.187Z,17.2
2018-05-12T23:22:56.392Z,17.2
2018-05-12T23:24:03.608Z,17.2
2018-05-12T23:25:10.824Z,17.1
2018-05-12T23:26:18.035Z,17.1
2018-05-12T23:27:25.240Z,17.1
2018-05-12T23:28:32.445Z,17.1
2018-05-12T23:29:39.391Z,17.1
2018-05-12T23:30:46.598Z,17
2018-05-12T23:31:53.819Z,17
2018-05-12T23:33:01.027Z,16.9
2018-05-12T23:34:08.235Z,16.9
2018-05-12T23:35:15.192Z,16.9
2018-05-12T23:36:22.117Z,16.8
2018-05-12T23:37:29.328Z,16.8
2018-05-12T23:38:36.535Z,16.8
2018-05-12T23:39:43.742Z,16.7
2018-05-12T23:40:50.947Z,16.7
2018-05-12T23:41:57.888Z,16.7
2018-05-12T23:43:05.097Z,16.6
2018-05-12T23:44:12.305Z,16.5
2018-05-12T23:45:19.513Z,16.6
2018-05-12T23:46:26.718Z,16.6
2018-05-12T23:47:33.661Z,16.5
2018-05-12T23:48:40.889Z,16.5
2018-05-12T23:49:47.838Z,16.5
2018-05-12T23:50:55.040Z,16.4
2018-05-12T23:52:02.251Z,16.4
2018-05-12T23:53:09.189Z,16.4
2018-05-12T23:54:16.398Z,16.4
2018-05-12T23:55:23.604Z,16.3
2018-05-12T23:56:30.817Z,16.3
2018-05-12T23:57:38.017Z,16.3
2018-05-12T23:58:45.225Z,16.2
2018-05-12T23:59:52.432Z,16.2
